createdAt,value
2022-09-07T00:07:46.486Z,18.1
2022-09-07T00:11:50.185Z,17.8
2022-09-07T00:15:53.916Z,18
2022-09-07T00:17:55.694Z,18.1
2022-09-07T00:19:57.526Z,17.7
2022-09-07T00:22:02.636Z,17.6
2022-09-07T00:26:06.319Z,17.7
2022-09-07T00:27:08.880Z,17.8
2022-09-07T00:29:10.711Z,17.7
2022-09-07T00:31:12.623Z,17.9
2022-09-07T00:35:19.473Z,17.8
2022-09-07T00:37:21.317Z,17.5
2022-09-07T00:39:23.167Z,17.9
2022-09-07T00:41:24.994Z,17.9
2022-09-07T00:43:26.831Z,17.6
2022-09-07T00:45:28.857Z,17.9
2022-09-07T00:49:35.624Z,17.7
2022-09-07T00:51:37.493Z,17.5
2022-09-07T00:53:39.311Z,17.6
2022-09-07T00:57:43.027Z,17.6
2022-09-07T00:59:44.851Z,17.7
2022-09-07T01:01:46.770Z,17.5
2022-09-07T01:03:51.768Z,17.5
2022-09-07T01:07:55.452Z,17.8
2022-09-07T01:09:57.293Z,17.7
2022-09-07T01:11:59.127Z,17.6
2022-09-07T01:14:00.979Z,17.7
2022-09-07T01:16:02.922Z,17.7
2022-09-07T01:18:07.908Z,17.8
2022-09-07T01:20:09.756Z,17.9
2022-09-07T01:22:11.591Z,17.5
2022-09-07T01:25:15.979Z,17.7
2022-09-07T01:27:17.844Z,17.9
2022-09-07T01:29:19.681Z,17.9
2022-09-07T01:31:24.828Z,18
2022-09-07T01:33:26.708Z,17.9
2022-09-07T01:35:28.449Z,18
2022-09-07T01:37:30.300Z,17.7
2022-09-07T01:39:32.198Z,17.8
2022-09-07T01:41:33.977Z,17.9
2022-09-07T01:43:35.825Z,17.9
2022-09-07T01:47:42.755Z,18
2022-09-07T01:51:46.447Z,17.8
2022-09-07T01:53:48.459Z,18
2022-09-07T01:55:50.136Z,18
2022-09-07T01:57:51.974Z,17.9
2022-09-07T01:59:57.071Z,18.2
2022-09-07T02:01:58.947Z,18.1
2022-09-07T02:04:00.804Z,17.9
2022-09-07T02:06:02.630Z,18
2022-09-07T02:08:04.466Z,17.9
2022-09-07T02:10:06.327Z,17.9
2022-09-07T02:12:08.146Z,17.9
2022-09-07T02:14:13.291Z,18.2
2022-09-07T02:16:15.122Z,18.2
2022-09-07T02:18:16.912Z,18
2022-09-07T02:19:19.475Z,18
2022-09-07T02:21:21.300Z,18.1
2022-09-07T02:23:23.144Z,18
2022-09-07T02:25:24.968Z,18
2022-09-07T02:27:30.094Z,18
2022-09-07T02:29:31.936Z,17.9
2022-09-07T02:31:35.359Z,18
2022-09-07T02:33:37.119Z,18.1
2022-09-07T02:41:47.772Z,18
2022-09-07T02:43:49.599Z,17.9
2022-09-07T02:45:51.465Z,18
2022-09-07T02:47:53.266Z,17.8
2022-09-07T02:49:55.140Z,18
2022-09-07T02:51:56.961Z,18.1
2022-09-07T02:53:58.799Z,18.1
2022-09-07T02:56:03.892Z,18
2022-09-07T02:58:05.750Z,18
2022-09-07T03:00:07.577Z,18.1
2022-09-07T03:02:09.457Z,18
2022-09-07T03:04:11.273Z,18.3
2022-09-07T03:06:13.143Z,18.1
2022-09-07T03:08:14.949Z,18
2022-09-07T03:10:20.056Z,18.1
2022-09-07T03:12:21.900Z,18.2
2022-09-07T03:14:23.722Z,18.1
2022-09-07T03:16:52.458Z,17.9
2022-09-07T03:18:54.311Z,17.9
2022-09-07T03:20:56.143Z,17.9
2022-09-07T03:23:01.233Z,17.9
2022-09-07T03:25:03.085Z,18
2022-09-07T03:27:04.927Z,17.9
2022-09-07T03:29:06.780Z,17.8
2022-09-07T03:31:08.741Z,17.9
2022-09-07T03:35:14.253Z,17.9
2022-09-07T03:37:17.397Z,17.9
2022-09-07T03:39:19.227Z,18.1
2022-09-07T03:41:21.088Z,18.1
2022-09-07T03:43:22.924Z,18.1
2022-09-07T03:45:24.771Z,17.9
2022-09-07T03:47:26.606Z,18
2022-09-07T03:49:28.457Z,18.1
2022-09-07T03:51:33.550Z,18.1
2022-09-07T03:53:35.415Z,18.1
2022-09-07T03:55:37.215Z,18
2022-09-07T03:57:39.057Z,17.9
2022-09-07T03:59:40.899Z,18.2
2022-09-07T04:01:42.947Z,17.9
2022-09-07T04:03:44.589Z,18.1
2022-09-07T04:05:49.692Z,18
2022-09-07T04:07:51.506Z,18
2022-09-07T04:09:53.391Z,17.9
2022-09-07T04:10:55.913Z,17.7
2022-09-07T04:12:57.760Z,17.8
2022-09-07T04:23:10.225Z,18.1
2022-09-07T04:25:12.055Z,18
2022-09-07T04:27:13.893Z,17.8
2022-09-07T04:29:15.753Z,17.9
2022-09-07T04:31:17.654Z,17.8
2022-09-07T04:33:22.673Z,18.1
2022-09-07T04:35:24.504Z,18
2022-09-07T04:37:26.353Z,18
2022-09-07T04:39:28.247Z,17.9
2022-09-07T04:41:30.038Z,18
2022-09-07T04:43:31.976Z,18
2022-09-07T04:45:33.690Z,18
2022-09-07T04:47:38.788Z,18.2
2022-09-07T04:49:40.641Z,18.1
2022-09-07T04:51:42.477Z,18.1
2022-09-07T04:55:46.150Z,18.1
2022-09-07T04:57:47.995Z,18.1
2022-09-07T04:59:49.835Z,18.1
2022-09-07T05:01:55.015Z,17.9
2022-09-07T05:03:56.775Z,17.9
2022-09-07T05:05:58.606Z,17.9
2022-09-07T05:07:01.127Z,17.8
2022-09-07T05:09:02.989Z,17.8
2022-09-07T05:11:04.812Z,17.9
2022-09-07T05:15:11.766Z,17.9
2022-09-07T05:17:13.593Z,18.1
2022-09-07T05:19:15.437Z,18.2
2022-09-07T05:27:22.789Z,18.1
2022-09-07T05:31:29.712Z,18
2022-09-07T05:35:33.395Z,18.1
2022-09-07T05:37:35.249Z,18.2
2022-09-07T05:39:37.167Z,18.3
2022-09-07T05:41:38.903Z,18.4
2022-09-07T05:45:45.903Z,18.4
2022-09-07T05:47:47.679Z,18.3
2022-09-07T05:49:51.926Z,18.4
2022-09-07T05:55:55.021Z,18.4
2022-09-07T06:00:01.967Z,18.6
2022-09-07T06:02:04.013Z,18.5
2022-09-07T06:03:06.477Z,18.7
2022-09-07T06:05:08.178Z,18.6
2022-09-07T06:07:21.155Z,18.6
2022-09-07T06:09:11.847Z,18.7
2022-09-07T06:11:16.934Z,18.8
2022-09-07T06:13:18.801Z,18.8
2022-09-07T06:15:20.600Z,18.9
2022-09-07T06:17:22.436Z,18.8
2022-09-07T06:19:24.298Z,18.8
2022-09-07T06:21:26.098Z,18.6
2022-09-07T06:25:33.037Z,18.9
2022-09-07T06:27:34.879Z,18.8
2022-09-07T06:29:36.718Z,18.8
2022-09-07T06:33:40.384Z,18.8
2022-09-07T06:35:42.223Z,18.8
2022-09-07T06:37:44.074Z,18.8
2022-09-07T06:39:49.210Z,18.9
2022-09-07T06:43:52.829Z,18.9
2022-09-07T06:45:54.708Z,19
2022-09-07T06:47:56.494Z,19
2022-09-07T06:49:58.349Z,18.8
2022-09-07T06:52:00.200Z,18.9
2022-09-07T06:56:07.106Z,19
2022-09-07T06:58:08.917Z,19
2022-09-07T07:00:37.663Z,19.4
2022-09-07T07:02:39.468Z,19.3
2022-09-07T07:04:41.528Z,19.3
2022-09-07T07:08:48.197Z,19.4
2022-09-07T07:10:50.058Z,19.4
2022-09-07T07:12:51.885Z,19.6
2022-09-07T07:14:53.727Z,20.1
2022-09-07T07:16:55.553Z,20
2022-09-07T07:18:57.371Z,19.6
2022-09-07T07:21:02.463Z,20.5
2022-09-07T07:23:04.279Z,20.9
2022-09-07T07:25:06.128Z,20.2
2022-09-07T07:27:07.964Z,19.9
2022-09-07T07:35:18.507Z,19.5
2022-09-07T07:37:22.776Z,19.4
2022-09-07T07:41:54.470Z,19.6
2022-09-07T07:43:25.823Z,19.7
2022-09-07T07:45:55.135Z,19.8
2022-09-07T07:47:29.465Z,19.9
2022-09-07T07:49:35.689Z,20.5
2022-09-07T07:53:42.257Z,22.9
2022-09-07T08:00:54.393Z,21.4
2022-09-07T08:02:51.335Z,20.3
2022-09-07T08:04:53.104Z,20.3
2022-09-07T08:06:54.934Z,19.9
2022-09-07T08:08:56.718Z,20.4
2022-09-07T08:10:58.518Z,20.4
2022-09-07T08:13:00.331Z,20.3
2022-09-07T08:15:02.196Z,20.1
2022-09-07T08:17:07.272Z,20.3
2022-09-07T08:19:09.087Z,20.4
2022-09-07T08:21:10.896Z,20.3
2022-09-07T08:23:14.267Z,20.3
2022-09-07T08:25:16.070Z,20.3
2022-09-07T08:27:17.884Z,20.3
2022-09-07T08:29:19.679Z,20.8
2022-09-07T08:31:24.803Z,21.7
2022-09-07T08:33:26.648Z,22.3
2022-09-07T08:35:28.427Z,24
2022-09-07T08:37:30.231Z,24.6
2022-09-07T08:39:32.124Z,25.4
2022-09-07T08:41:33.733Z,24.3
2022-09-07T08:43:35.545Z,23.4
2022-09-07T08:45:40.633Z,24.3
2022-09-07T08:47:42.427Z,24.3
2022-09-07T08:49:44.213Z,24.1
2022-09-07T08:52:48.552Z,23.9
2022-09-07T08:57:20.996Z,24.4
2022-09-07T08:58:57.003Z,24.9
2022-09-07T09:03:30.095Z,25.6
2022-09-07T09:05:18.409Z,24
2022-09-07T09:11:07.168Z,22.7
2022-09-07T09:15:13.694Z,24.1
2022-09-07T09:19:17.085Z,25.2
2022-09-07T09:21:18.769Z,25.6
2022-09-07T09:23:20.447Z,25.5
2022-09-07T09:25:22.074Z,25.2
2022-09-07T09:27:26.953Z,23.3
2022-09-07T09:29:28.724Z,23.1
2022-09-07T09:31:30.574Z,22.7
2022-09-07T09:33:32.176Z,22.8
2022-09-07T09:35:33.827Z,23.8
2022-09-07T09:37:35.522Z,24.9
2022-09-07T09:39:37.233Z,25.1
2022-09-07T09:41:42.054Z,26.4
2022-09-07T09:43:43.712Z,26.7
2022-09-07T09:46:12.802Z,26.7
2022-09-07T09:46:48.145Z,26.4
2022-09-07T09:48:49.489Z,26.2
2022-09-07T09:52:52.821Z,27.2
2022-09-07T09:55:00.166Z,26.5
2022-09-07T09:56:59.342Z,26
2022-09-07T09:59:56.778Z,25.5
2022-09-07T10:07:07.603Z,25.8
2022-09-07T10:09:12.438Z,26.3
2022-09-07T10:11:14.118Z,26.1
2022-09-07T10:15:17.385Z,26.4
2022-09-07T10:17:19.028Z,26.6
2022-09-07T10:19:20.657Z,27.1
2022-09-07T10:21:22.296Z,27.1
2022-09-07T10:23:27.136Z,27.9
2022-09-07T10:25:28.732Z,27.6
2022-09-07T10:27:30.362Z,27.2
2022-09-07T10:29:31.974Z,27.2
2022-09-07T10:31:33.622Z,27.5
2022-09-07T10:33:35.223Z,27.5
2022-09-07T10:35:37.377Z,27.2
2022-09-07T10:37:41.649Z,27.1
2022-09-07T10:39:43.310Z,27.1
2022-09-07T10:41:44.859Z,27.8
2022-09-07T10:44:13.246Z,28.1
2022-09-07T10:46:55.858Z,28
2022-09-07T10:48:16.411Z,28.1
2022-09-07T10:50:22.633Z,27.8
2022-09-07T10:52:22.811Z,27.6
2022-09-07T10:54:31.861Z,27.4
2022-09-07T10:56:25.969Z,27.6
2022-09-07T11:00:29.141Z,27.1
2022-09-07T11:02:30.774Z,27.5
2022-09-07T11:04:35.490Z,26.4
2022-09-07T11:06:37.083Z,26.1
2022-09-07T11:10:40.233Z,25.3
2022-09-07T11:12:41.842Z,26.2
2022-09-07T11:14:43.429Z,27.5
2022-09-07T11:18:50.113Z,26.8
2022-09-07T11:20:51.438Z,26.8
2022-09-07T11:35:05.837Z,28.5
2022-09-07T11:37:07.454Z,28.2
2022-09-07T11:38:09.822Z,28.3
2022-09-07T11:40:11.530Z,29.7
2022-09-07T11:42:43.165Z,31.3
2022-09-07T11:44:14.632Z,29.4
2022-09-07T11:46:19.505Z,27.5
2022-09-07T11:48:21.038Z,27.2
2022-09-07T11:50:22.623Z,26.7
2022-09-07T11:52:24.256Z,25.9
2022-09-07T11:54:25.852Z,25.9
2022-09-07T11:56:27.432Z,28.5
2022-09-07T11:58:29.122Z,31.3
2022-09-07T12:04:37.106Z,30.1
2022-09-07T12:06:38.682Z,30.8
2022-09-07T12:08:40.265Z,28.5
2022-09-07T12:10:41.872Z,26.8
2022-09-07T12:12:43.477Z,26.3
2022-09-07T12:14:48.276Z,26.7
2022-09-07T12:16:49.873Z,26.6
2022-09-07T12:18:51.479Z,26.2
2022-09-07T12:20:53.096Z,26
2022-09-07T12:22:54.683Z,26.2
2022-09-07T12:24:56.316Z,26.4
2022-09-07T12:26:57.917Z,26.3
2022-09-07T12:29:02.729Z,25.8
2022-09-07T12:34:08.396Z,25.7
2022-09-07T12:36:10.028Z,26.3
2022-09-07T12:38:11.665Z,27.7
2022-09-07T12:40:13.318Z,26.6
2022-09-07T12:42:36.737Z,26.3
2022-09-07T12:44:19.743Z,26.5
2022-09-07T12:46:21.476Z,27.8
2022-09-07T12:48:23.005Z,29.2
2022-09-07T12:50:24.637Z,27.9
2022-09-07T12:52:26.280Z,27
2022-09-07T12:54:27.948Z,26.6
2022-09-07T12:58:34.406Z,26.2
2022-09-07T13:00:36.091Z,25.9
2022-09-07T13:02:37.801Z,26
2022-09-07T13:04:39.329Z,26.5
2022-09-07T13:07:03.111Z,26.9
2022-09-07T13:08:42.589Z,27.2
2022-09-07T13:10:47.423Z,26.5
2022-09-07T13:12:57.398Z,26.5
2022-09-07T13:14:51.001Z,26.9
2022-09-07T13:17:16.674Z,27.3
2022-09-07T13:22:57.263Z,27
2022-09-07T13:25:02.113Z,26.6
2022-09-07T13:30:07.800Z,27.5
2022-09-07T13:32:09.418Z,27.6
2022-09-07T13:34:11.075Z,27.8
2022-09-07T13:38:17.545Z,27.1
2022-09-07T13:40:19.202Z,26.9
2022-09-07T13:42:20.841Z,26.9
2022-09-07T13:44:25.804Z,26.9
2022-09-07T13:46:24.218Z,27
2022-09-07T13:48:25.777Z,27.3
2022-09-07T13:50:27.417Z,27.5
2022-09-07T13:52:32.240Z,27.7
2022-09-07T13:54:33.884Z,27.6
2022-09-07T13:56:35.516Z,27.4
2022-09-07T13:58:37.159Z,27.1
2022-09-07T14:00:38.803Z,26.7
2022-09-07T14:02:40.503Z,26.4
2022-09-07T14:04:42.071Z,26
2022-09-07T14:06:46.917Z,26
2022-09-07T14:08:48.550Z,26.1
2022-09-07T14:10:50.204Z,26.8
2022-09-07T14:12:51.859Z,27.2
2022-09-07T14:14:55.046Z,27.4
2022-09-07T14:16:56.692Z,27.7
2022-09-07T14:18:58.273Z,27.6
2022-09-07T14:21:03.104Z,26.5
2022-09-07T14:23:04.738Z,26.5
2022-09-07T14:25:06.379Z,26.5
2022-09-07T14:27:34.784Z,26.6
2022-09-07T14:29:36.446Z,26.5
2022-09-07T14:31:38.065Z,26.9
2022-09-07T14:33:46.638Z,26.9
2022-09-07T14:35:44.534Z,26.9
2022-09-07T14:37:40.367Z,27
2022-09-07T14:39:42.100Z,27
2022-09-07T14:41:43.642Z,27.2
2022-09-07T14:43:45.304Z,27.7
2022-09-07T14:45:46.972Z,27.4
2022-09-07T14:47:52.267Z,26.9
2022-09-07T14:49:53.390Z,26.9
2022-09-07T14:51:55.049Z,26.7
2022-09-07T14:53:56.690Z,26.7
2022-09-07T14:55:58.610Z,26.7
2022-09-07T14:58:02.941Z,27
2022-09-07T15:00:01.632Z,27
2022-09-07T15:02:06.483Z,27
2022-09-07T15:08:11.437Z,26.7
2022-09-07T15:10:13.020Z,26.6
2022-09-07T15:12:14.670Z,26.3
2022-09-07T15:14:16.380Z,26.4
2022-09-07T15:16:22.293Z,26.4
2022-09-07T15:18:22.832Z,26.2
2022-09-07T15:20:24.442Z,26.4
2022-09-07T15:21:26.878Z,26.1
2022-09-07T15:23:28.537Z,26
2022-09-07T15:25:30.633Z,26.2
2022-09-07T15:27:31.849Z,26.4
2022-09-07T15:29:36.666Z,26.2
2022-09-07T15:31:41.684Z,26.1
2022-09-07T15:33:39.994Z,26.1
2022-09-07T15:35:41.789Z,26.2
2022-09-07T15:38:04.939Z,26.2
2022-09-07T15:39:44.959Z,26.5
2022-09-07T15:41:46.590Z,26.4
2022-09-07T15:43:51.423Z,26.6
2022-09-07T15:45:53.152Z,26.6
2022-09-07T15:47:54.800Z,26.5
2022-09-07T15:49:56.394Z,26.5
2022-09-07T15:52:05.861Z,26.4
2022-09-07T15:54:11.543Z,26
2022-09-07T15:56:03.156Z,26.2
2022-09-07T15:58:11.939Z,26.2
2022-09-07T16:00:07.853Z,26.1
2022-09-07T16:04:11.342Z,26
2022-09-07T16:06:13.941Z,26.1
2022-09-07T16:14:22.620Z,25.9
2022-09-07T16:17:26.577Z,25.8
2022-09-07T16:17:27.431Z,25.7
2022-09-07T16:19:28.383Z,25.7
2022-09-07T16:21:30.019Z,25.7
2022-09-07T16:25:36.512Z,25.7
2022-09-07T16:27:38.188Z,25.7
2022-09-07T16:29:39.856Z,25.8
2022-09-07T16:32:43.996Z,25.6
2022-09-07T16:33:43.270Z,25.7
2022-09-07T16:35:44.837Z,25.8
2022-09-07T16:39:51.495Z,25.3
2022-09-07T16:41:53.034Z,25.4
2022-09-07T16:43:54.887Z,25.2
2022-09-07T16:46:04.051Z,25.2
2022-09-07T16:47:58.048Z,25
2022-09-07T16:49:59.733Z,25.1
2022-09-07T16:52:01.409Z,25.4
2022-09-07T16:54:06.268Z,25.3
2022-09-07T16:56:07.935Z,25.3
2022-09-07T16:58:36.271Z,25.5
2022-09-07T17:00:11.308Z,25.3
2022-09-07T17:02:12.988Z,25.3
2022-09-07T17:04:14.703Z,25.2
2022-09-07T17:06:16.345Z,25.2
2022-09-07T17:08:21.175Z,24.9
2022-09-07T17:10:22.873Z,24.9
2022-09-07T17:12:24.563Z,24.8
2022-09-07T17:13:26.995Z,24.8
2022-09-07T17:21:36.919Z,24.9
2022-09-07T17:25:40.488Z,24.6
2022-09-07T17:27:44.089Z,24.7
2022-09-07T17:29:43.851Z,24.6
2022-09-07T17:33:47.237Z,24.5
2022-09-07T17:35:52.110Z,24.5
2022-09-07T17:37:53.987Z,24.5
2022-09-07T17:39:56.671Z,24.5
2022-09-07T17:41:57.198Z,24.4
2022-09-07T17:43:59.095Z,24.3
2022-09-07T17:46:00.601Z,24.3
2022-09-07T17:48:02.283Z,24
2022-09-07T17:50:07.157Z,24.3
2022-09-07T17:52:08.846Z,24.1
2022-09-07T17:54:11.583Z,24.2
2022-09-07T17:56:12.369Z,24.2
2022-09-07T17:58:14.144Z,24.1
2022-09-07T18:00:15.872Z,24.1
2022-09-07T18:02:17.566Z,24
2022-09-07T18:04:22.503Z,23.8
2022-09-07T18:06:24.250Z,23.8
2022-09-07T18:12:56.262Z,23.6
2022-09-07T18:14:57.987Z,23.7
2022-09-07T18:17:02.873Z,23.5
2022-09-07T18:19:04.571Z,23.5
2022-09-07T18:23:07.986Z,23.4
2022-09-07T18:25:10.349Z,23.6
2022-09-07T18:33:20.198Z,23.2
2022-09-07T18:35:21.944Z,23.3
2022-09-07T18:37:23.656Z,23.1
2022-09-07T18:39:25.464Z,23.3
2022-09-07T18:41:27.257Z,23.2
2022-09-07T18:43:29.164Z,23.2
2022-09-07T18:45:34.154Z,23
2022-09-07T18:47:35.799Z,22.9
2022-09-07T18:49:37.506Z,23
2022-09-07T18:53:40.921Z,22.8
2022-09-07T18:55:42.637Z,23
2022-09-07T18:57:44.924Z,22.9
2022-09-07T18:59:49.227Z,22.7
2022-09-07T19:01:51.109Z,22.8
2022-09-07T19:03:52.683Z,22.7
2022-09-07T19:06:56.935Z,22.6
2022-09-07T19:08:58.651Z,22.6
2022-09-07T19:11:00.450Z,22.6
2022-09-07T19:13:05.562Z,22.4
2022-09-07T19:15:07.385Z,22.4
2022-09-07T19:17:09.179Z,22.5
2022-09-07T19:19:11.032Z,22.5
2022-09-07T19:21:16.711Z,22.2
2022-09-07T19:23:14.638Z,22.3
2022-09-07T19:25:16.460Z,22.3
2022-09-07T19:27:21.560Z,22.3
2022-09-07T19:29:23.404Z,22.2
2022-09-07T19:31:25.262Z,22.1
2022-09-07T19:35:28.823Z,22.2
2022-09-07T19:37:30.649Z,22
2022-09-07T19:39:32.596Z,22.1
2022-09-07T19:41:37.555Z,21.9
2022-09-07T19:43:39.384Z,21.9
2022-09-07T19:45:41.210Z,21.7
2022-09-07T19:47:43.044Z,21.7
2022-09-07T19:49:44.866Z,21.7
2022-09-07T19:51:46.671Z,21.4
2022-09-07T19:53:48.512Z,21.3
2022-09-07T19:55:53.604Z,21.5
2022-09-07T19:57:55.437Z,21.4
2022-09-07T20:00:59.864Z,21.4
2022-09-07T20:03:01.682Z,21.6
2022-09-07T20:05:05.035Z,21.6
2022-09-07T20:07:06.816Z,21.4
2022-09-07T20:09:11.913Z,21.4
2022-09-07T20:11:13.746Z,21.4
2022-09-07T20:13:15.567Z,21.4
2022-09-07T20:15:17.394Z,21.3
2022-09-07T20:17:19.242Z,21.1
2022-09-07T20:19:21.110Z,21
2022-09-07T20:21:22.880Z,20.9
2022-09-07T20:23:27.976Z,20.9
2022-09-07T20:27:31.642Z,20.9
2022-09-07T20:29:33.490Z,20.9
2022-09-07T20:35:38.992Z,20.8
2022-09-07T20:37:44.116Z,20.7
2022-09-07T20:39:45.939Z,20.6
2022-09-07T20:41:47.751Z,20.6
2022-09-07T20:43:49.588Z,20.7
2022-09-07T20:45:51.425Z,20.7
2022-09-07T20:47:53.266Z,20.6
2022-09-07T20:49:55.107Z,20.7
2022-09-07T20:52:00.197Z,20.5
2022-09-07T20:54:02.021Z,20.6
2022-09-07T20:56:03.870Z,20.6
2022-09-07T20:57:06.403Z,20.4
2022-09-07T20:59:08.235Z,20.5
2022-09-07T21:01:10.147Z,20.4
2022-09-07T21:03:11.923Z,20.3
2022-09-07T21:05:17.050Z,20.1
2022-09-07T21:07:18.893Z,20.3
2022-09-07T21:09:20.713Z,20.4
2022-09-07T21:11:22.532Z,20.1
2022-09-07T21:13:24.388Z,20.1
2022-09-07T21:15:26.243Z,20.1
2022-09-07T21:17:28.108Z,20.2
2022-09-07T21:19:33.191Z,20.1
2022-09-07T21:21:38.315Z,20.2
2022-09-07T21:23:36.852Z,20
2022-09-07T21:25:38.711Z,20
2022-09-07T21:27:40.559Z,20
2022-09-07T21:29:42.389Z,19.9
2022-09-07T21:31:44.311Z,20
2022-09-07T21:33:49.338Z,19.9
2022-09-07T21:35:51.377Z,20.1
2022-09-07T21:37:53.026Z,19.9
2022-09-07T21:41:56.717Z,19.7
2022-09-07T21:43:58.536Z,19.6
2022-09-07T21:48:05.490Z,19.5
2022-09-07T21:50:07.328Z,19.5
2022-09-07T21:52:09.160Z,19.4
2022-09-07T21:54:37.884Z,19.4
2022-09-07T21:56:44.421Z,19.3
2022-09-07T22:00:46.718Z,19.6
2022-09-07T22:02:48.543Z,19.4
2022-09-07T22:04:50.327Z,19.5
2022-09-07T22:06:52.188Z,19.5
2022-09-07T22:08:54.041Z,19.3
2022-09-07T22:10:55.874Z,19.3
2022-09-07T22:12:57.700Z,19.4
2022-09-07T22:15:02.851Z,19.4
2022-09-07T22:17:04.676Z,19.4
2022-09-07T22:19:06.499Z,19.3
2022-09-07T22:23:10.201Z,19.3
2022-09-07T22:27:13.886Z,19.2
2022-09-07T22:29:18.972Z,19.1
2022-09-07T22:35:24.503Z,19.2
2022-09-07T22:37:26.364Z,19.2
2022-09-07T22:41:30.055Z,19.2
2022-09-07T22:43:35.209Z,19.4
2022-09-07T22:45:36.975Z,19.3
2022-09-07T22:47:38.820Z,19.5
2022-09-07T22:50:43.238Z,19.6
2022-09-07T22:52:45.086Z,19.4
2022-09-07T22:54:46.890Z,19.5
2022-09-07T22:56:51.993Z,19.5
2022-09-07T22:58:53.836Z,19.5
2022-09-07T23:02:57.528Z,19.5
2022-09-07T23:04:59.475Z,19.5
2022-09-07T23:07:01.208Z,19.5
2022-09-07T23:09:03.037Z,19.4
2022-09-07T23:11:08.165Z,19.4
2022-09-07T23:13:12.794Z,19.5
2022-09-07T23:15:11.826Z,19.4
2022-09-07T23:17:13.664Z,19.4
2022-09-07T23:19:15.511Z,19.3
2022-09-07T23:21:17.366Z,19.6
2022-09-07T23:25:24.284Z,19.3
2022-09-07T23:27:26.137Z,19.3
2022-09-07T23:35:33.512Z,19.4
2022-09-07T23:43:44.116Z,19.4
2022-09-07T23:44:46.667Z,19.4
2022-09-07T23:46:48.565Z,19.5
2022-09-07T23:48:50.342Z,19.4
2022-09-07T23:50:52.180Z,19.5
2022-09-07T23:52:57.277Z,19.5
2022-09-07T23:54:59.117Z,19.4
2022-09-07T23:57:00.968Z,19.3
2022-09-07T23:59:02.810Z,19.4
